createdAt,value
2022-08-22T00:00:13.865Z,26.82
2022-08-22T00:03:11.931Z,26.85
2022-08-22T00:03:12.734Z,26.86
2022-08-22T00:06:01.307Z,26.89
2022-08-22T00:08:41.229Z,26.92
2022-08-22T00:11:28.582Z,26.93
2022-08-22T00:14:10.908Z,26.93
2022-08-22T00:17:00.478Z,26.98
2022-08-22T00:19:30.602Z,26.98
2022-08-22T00:21:58.027Z,26.98
2022-08-22T00:24:30.680Z,26.92
2022-08-22T00:27:17.384Z,26.94
2022-08-22T00:30:12.063Z,26.93
2022-08-22T00:32:47.279Z,26.91
2022-08-22T00:35:34.917Z,26.88
2022-08-22T00:38:09.352Z,26.90
2022-08-22T00:41:27.526Z,26.91
2022-08-22T00:44:24.157Z,26.89
2022-08-22T00:47:26.606Z,26.92
2022-08-22T00:50:26.339Z,26.94
2022-08-22T00:53:12.152Z,26.89
2022-08-22T00:55:45.296Z,26.89
2022-08-22T00:58:24.353Z,26.90
2022-08-22T01:01:06.834Z,26.84
2022-08-22T01:04:23.513Z,26.60
2022-08-22T01:06:53.813Z,26.47
2022-08-22T01:09:58.538Z,26.35
2022-08-22T01:12:50.676Z,26.36
2022-08-22T01:15:25.826Z,26.15
2022-08-22T01:18:37.820Z,26.27
2022-08-22T01:21:26.761Z,26.32
2022-08-22T01:24:24.898Z,26.43
2022-08-22T01:27:07.376Z,26.54
2022-08-22T01:30:03.936Z,26.55
2022-08-22T01:32:31.936Z,26.55
2022-08-22T01:35:36.060Z,26.51
2022-08-22T01:38:21.910Z,26.56
2022-08-22T01:41:00.745Z,26.59
2022-08-22T01:43:58.640Z,26.60
2022-08-22T01:47:06.836Z,26.56
2022-08-22T01:49:33.885Z,26.60
2022-08-22T01:52:10.310Z,26.63
2022-08-22T01:54:44.564Z,26.62
2022-08-22T01:57:13.602Z,26.61
2022-08-22T01:59:44.236Z,26.57
2022-08-22T02:02:23.981Z,26.44
2022-08-22T02:05:09.483Z,26.27
2022-08-22T02:08:18.216Z,26.12
2022-08-22T02:10:59.866Z,26.15
2022-08-22T02:13:35.779Z,26.17
2022-08-22T02:16:16.724Z,26.08
2022-08-22T02:18:58.565Z,25.84
2022-08-22T02:22:00.224Z,25.90
2022-08-22T02:24:58.393Z,25.94
2022-08-22T02:28:00.611Z,26.10
2022-08-22T02:31:00.335Z,26.13
2022-08-22T02:33:45.912Z,25.98
2022-08-22T02:36:26.268Z,25.98
2022-08-22T02:39:05.941Z,26.14
2022-08-22T02:41:45.960Z,26.01
2022-08-22T02:44:20.522Z,25.96
2022-08-22T02:46:56.206Z,26.04
2022-08-22T02:49:43.785Z,26.14
2022-08-22T02:52:41.400Z,26.11
2022-08-22T02:55:39.488Z,26.08
2022-08-22T02:58:11.665Z,25.97
2022-08-22T03:00:59.047Z,26.01
2022-08-22T03:03:31.815Z,26.01
2022-08-22T03:06:05.581Z,26.05
2022-08-22T03:08:36.349Z,25.97
2022-08-22T03:11:11.941Z,26.00
2022-08-22T03:14:00.578Z,26.01
2022-08-22T03:16:40.546Z,25.91
2022-08-22T03:19:22.530Z,25.87
2022-08-22T03:22:02.827Z,25.98
2022-08-22T03:25:05.185Z,25.96
2022-08-22T03:27:42.384Z,25.87
2022-08-22T03:30:36.924Z,25.74
2022-08-22T03:33:17.928Z,25.74
2022-08-22T03:35:45.156Z,25.70
2022-08-22T03:38:47.826Z,25.60
2022-08-22T03:41:52.649Z,25.77
2022-08-22T03:44:35.521Z,25.90
2022-08-22T03:47:17.757Z,26.03
2022-08-22T03:49:50.780Z,26.09
2022-08-22T03:53:05.581Z,26.14
2022-08-22T03:56:19.952Z,26.17
2022-08-22T03:59:22.493Z,26.25
2022-08-22T04:02:27.503Z,26.24
2022-08-22T04:05:15.303Z,26.27
2022-08-22T04:08:03.137Z,26.28
2022-08-22T04:10:51.822Z,26.30
2022-08-22T04:13:24.850Z,26.32
2022-08-22T04:16:07.188Z,26.38
2022-08-22T04:18:43.301Z,26.39
2022-08-22T04:22:00.140Z,26.36
2022-08-22T04:24:55.355Z,26.42
2022-08-22T04:27:43.767Z,26.42
2022-08-22T04:30:16.764Z,26.40
2022-08-22T04:33:11.807Z,26.41
2022-08-22T04:35:52.360Z,26.29
2022-08-22T04:38:28.840Z,26.22
2022-08-22T04:41:04.871Z,26.27
2022-08-22T04:43:45.316Z,26.26
2022-08-22T04:46:37.070Z,26.23
2022-08-22T04:49:24.669Z,26.13
2022-08-22T04:52:05.900Z,26.19
2022-08-22T04:54:51.572Z,26.14
2022-08-22T04:57:44.188Z,26.03
2022-08-22T05:00:12.203Z,26.05
2022-08-22T05:02:48.320Z,26.12
2022-08-22T05:05:23.704Z,26.19
2022-08-22T05:07:58.679Z,26.27
2022-08-22T05:10:27.816Z,26.28
2022-08-22T05:13:23.915Z,26.23
2022-08-22T05:15:57.181Z,26.25
2022-08-22T05:18:29.609Z,26.29
2022-08-22T05:21:01.281Z,26.23
2022-08-22T05:23:58.811Z,26.21
2022-08-22T05:26:28.389Z,26.17
2022-08-22T05:29:02.952Z,26.24
2022-08-22T05:31:36.124Z,26.29
2022-08-22T05:34:04.792Z,26.34
2022-08-22T05:36:38.673Z,26.35
2022-08-22T05:39:17.167Z,26.38
2022-08-22T05:41:45.140Z,26.38
2022-08-22T05:44:28.363Z,26.40
2022-08-22T05:47:18.953Z,26.22
2022-08-22T05:50:04.295Z,26.16
2022-08-22T05:53:01.057Z,25.89
2022-08-22T05:55:55.527Z,25.96
2022-08-22T05:58:25.708Z,25.85
2022-08-22T06:01:16.843Z,25.90
2022-08-22T06:04:04.755Z,26.06
2022-08-22T06:06:38.220Z,25.98
2022-08-22T06:09:34.889Z,26.02
2022-08-22T06:12:21.706Z,26.17
2022-08-22T06:15:15.331Z,26.15
2022-08-22T06:17:51.404Z,26.06
2022-08-22T06:20:26.473Z,26.12
2022-08-22T06:23:02.559Z,26.22
2022-08-22T06:25:33.640Z,26.25
2022-08-22T06:28:06.504Z,26.24
2022-08-22T06:30:35.807Z,26.14
2022-08-22T06:33:12.645Z,26.23
2022-08-22T06:36:14.005Z,26.29
2022-08-22T06:39:07.643Z,26.27
2022-08-22T06:41:40.991Z,26.24
2022-08-22T06:44:17.796Z,26.12
2022-08-22T06:46:48.028Z,26.15
2022-08-22T06:49:16.836Z,26.12
2022-08-22T06:51:45.268Z,26.15
2022-08-22T06:54:21.747Z,26.27
2022-08-22T06:56:52.688Z,26.06
2022-08-22T06:59:26.178Z,26.02
2022-08-22T07:02:08.136Z,26.12
2022-08-22T07:04:37.136Z,26.25
2022-08-22T07:07:04.554Z,26.30
2022-08-22T07:09:38.508Z,26.35
2022-08-22T07:12:20.908Z,26.44
2022-08-22T07:14:52.206Z,26.39
2022-08-22T07:17:25.791Z,26.43
2022-08-22T07:20:23.728Z,26.44
2022-08-22T07:22:58.863Z,26.41
2022-08-22T07:25:27.466Z,26.48
2022-08-22T07:28:21.219Z,26.46
2022-08-22T07:31:18.245Z,26.40
2022-08-22T07:33:49.845Z,26.06
2022-08-22T07:36:22.611Z,26.22
2022-08-22T07:39:11.164Z,26.38
2022-08-22T07:42:11.512Z,26.41
2022-08-22T07:45:01.631Z,26.35
2022-08-22T07:47:50.532Z,26.12
2022-08-22T07:50:27.683Z,26.16
2022-08-22T07:52:59.148Z,26.15
2022-08-22T07:55:27.604Z,26.21
2022-08-22T07:58:04.677Z,26.18
2022-08-22T08:00:32.746Z,26.33
2022-08-22T08:03:06.396Z,26.30
2022-08-22T08:05:37.137Z,26.37
2022-08-22T08:08:15.587Z,26.52
2022-08-22T08:10:43.216Z,26.65
2022-08-22T08:13:21.721Z,26.60
2022-08-22T08:15:51.111Z,26.62
2022-08-22T08:18:22.233Z,26.67
2022-08-22T08:20:52.124Z,26.63
2022-08-22T08:23:23.550Z,26.49
2022-08-22T08:26:15.893Z,26.15
2022-08-22T08:28:48.190Z,26.18
2022-08-22T08:31:38.167Z,26.39
2022-08-22T08:34:25.876Z,26.53
2022-08-22T08:36:58.624Z,26.62
2022-08-22T08:39:35.016Z,26.72
2022-08-22T08:42:17.720Z,26.86
2022-08-22T08:45:01.533Z,26.96
2022-08-22T08:47:45.019Z,26.72
2022-08-22T08:50:46.326Z,26.44
2022-08-22T08:53:28.560Z,26.55
2022-08-22T08:56:25.501Z,26.69
2022-08-22T08:59:28.053Z,26.86
2022-08-22T09:02:34.796Z,26.95
2022-08-22T09:05:24.532Z,27.00
2022-08-22T09:08:27.663Z,27.05
2022-08-22T09:11:19.406Z,26.81
2022-08-22T09:14:07.604Z,26.75
2022-08-22T09:16:55.101Z,26.87
2022-08-22T09:20:24.508Z,27.05
2022-08-22T09:23:16.772Z,27.07
2022-08-22T09:25:58.545Z,26.96
2022-08-22T09:28:32.503Z,27.05
2022-08-22T09:31:21.813Z,26.90
2022-08-22T09:33:58.320Z,26.64
2022-08-22T09:36:53.495Z,26.85
2022-08-22T09:39:33.410Z,26.81
2022-08-22T09:42:17.605Z,26.89
2022-08-22T09:45:05.554Z,26.81
2022-08-22T09:47:44.450Z,26.62
2022-08-22T09:50:30.953Z,26.52
2022-08-22T09:53:41.046Z,26.64
2022-08-22T09:56:20.179Z,26.91
2022-08-22T09:59:02.849Z,27.08
2022-08-22T10:02:15.549Z,27.26
2022-08-22T10:04:51.817Z,27.20
2022-08-22T10:07:40.545Z,27.09
2022-08-22T10:10:17.334Z,27.32
2022-08-22T10:12:53.083Z,27.29
2022-08-22T10:15:31.132Z,27.17
2022-08-22T10:18:18.942Z,27.11
2022-08-22T10:20:55.266Z,27.11
2022-08-22T10:23:54.128Z,27.14
2022-08-22T10:26:55.639Z,27.22
2022-08-22T10:29:47.925Z,27.17
2022-08-22T10:32:39.285Z,27.03
2022-08-22T10:35:28.717Z,27.19
2022-08-22T10:38:12.335Z,27.35
2022-08-22T10:41:02.981Z,26.91
2022-08-22T10:43:56.353Z,27.18
2022-08-22T10:46:36.401Z,27.41
2022-08-22T10:49:19.447Z,27.57
2022-08-22T10:51:53.616Z,27.83
2022-08-22T10:54:20.927Z,27.94
2022-08-22T10:56:48.096Z,27.97
2022-08-22T10:59:27.797Z,28.24
2022-08-22T11:02:42.343Z,28.53
2022-08-22T11:05:36.550Z,28.57
2022-08-22T11:08:04.391Z,28.72
2022-08-22T11:10:31.483Z,28.66
2022-08-22T11:13:37.367Z,28.48
2022-08-22T11:16:43.583Z,28.32
2022-08-22T11:19:27.769Z,28.31
2022-08-22T11:22:06.658Z,28.42
2022-08-22T11:25:11.211Z,28.48
2022-08-22T11:28:05.105Z,28.53
2022-08-22T11:30:47.518Z,28.72
2022-08-22T11:33:47.446Z,28.84
2022-08-22T11:36:42.269Z,28.64
2022-08-22T11:39:45.352Z,28.55
2022-08-22T11:42:33.274Z,28.62
2022-08-22T11:45:05.561Z,28.71
2022-08-22T11:47:48.319Z,28.73
2022-08-22T11:50:21.656Z,28.64
2022-08-22T11:53:19.004Z,28.68
2022-08-22T11:55:49.534Z,28.83
2022-08-22T11:58:28.938Z,28.99
2022-08-22T12:01:20.224Z,29.21
2022-08-22T12:03:55.721Z,29.33
2022-08-22T12:06:39.491Z,29.45
2022-08-22T12:09:47.828Z,29.25
2022-08-22T12:12:27.916Z,29.42
2022-08-22T12:15:13.938Z,29.16
2022-08-22T12:18:08.351Z,29.38
2022-08-22T12:21:00.026Z,29.51
2022-08-22T12:24:19.064Z,29.38
2022-08-22T12:27:18.339Z,29.42
2022-08-22T12:30:05.007Z,29.67
2022-08-22T12:33:21.919Z,29.99
2022-08-22T12:36:22.324Z,30.11
2022-08-22T12:38:57.886Z,30.10
2022-08-22T12:41:46.715Z,29.95
2022-08-22T12:44:18.428Z,29.89
2022-08-22T12:47:04.502Z,29.84
2022-08-22T12:49:38.685Z,29.87
2022-08-22T12:52:16.071Z,30.00
2022-08-22T12:54:59.131Z,30.21
2022-08-22T12:57:57.393Z,30.41
2022-08-22T13:00:35.708Z,30.47
2022-08-22T13:03:26.880Z,30.51
2022-08-22T13:06:00.504Z,30.47
2022-08-22T13:08:46.743Z,30.20
2022-08-22T13:11:23.063Z,30.02
2022-08-22T13:13:57.425Z,30.09
2022-08-22T13:16:34.437Z,30.27
2022-08-22T13:19:18.882Z,30.16
2022-08-22T13:21:57.107Z,30.18
2022-08-22T13:24:38.545Z,30.11
2022-08-22T13:27:20.355Z,30.30
2022-08-22T13:29:57.045Z,30.36
2022-08-22T13:32:48.316Z,30.08
2022-08-22T13:35:30.441Z,29.86
2022-08-22T13:38:12.055Z,30.12
2022-08-22T13:40:46.559Z,30.43
2022-08-22T13:43:21.025Z,30.67
2022-08-22T13:46:03.386Z,30.88
2022-08-22T13:49:00.553Z,30.82
2022-08-22T13:52:00.193Z,30.87
2022-08-22T13:54:55.800Z,30.67
2022-08-22T13:57:51.796Z,30.75
2022-08-22T14:00:22.368Z,30.81
2022-08-22T14:02:56.459Z,30.86
2022-08-22T14:05:34.251Z,30.79
2022-08-22T14:08:18.486Z,30.91
2022-08-22T14:11:21.434Z,30.95
2022-08-22T14:14:01.283Z,30.92
2022-08-22T14:16:39.489Z,31.04
2022-08-22T14:19:13.631Z,31.08
2022-08-22T14:21:53.641Z,31.03
2022-08-22T14:24:48.336Z,31.19
2022-08-22T14:28:06.228Z,31.23
2022-08-22T14:30:49.526Z,31.24
2022-08-22T14:33:28.193Z,31.37
2022-08-22T14:36:03.664Z,31.51
2022-08-22T14:38:46.385Z,31.59
2022-08-22T14:41:28.829Z,31.78
2022-08-22T14:44:33.160Z,31.93
2022-08-22T14:47:04.457Z,31.89
2022-08-22T14:49:58.459Z,31.76
2022-08-22T14:52:40.936Z,31.90
2022-08-22T14:55:24.288Z,32.00
2022-08-22T14:57:51.605Z,32.09
2022-08-22T15:00:33.685Z,32.06
2022-08-22T15:03:16.519Z,32.12
2022-08-22T15:05:51.589Z,32.24
2022-08-22T15:08:27.516Z,32.26
2022-08-22T15:11:17.891Z,32.26
2022-08-22T15:13:51.353Z,32.15
2022-08-22T15:16:24.638Z,32.03
2022-08-22T15:18:52.257Z,31.86
2022-08-22T15:21:30.429Z,31.45
2022-08-22T15:24:10.013Z,31.35
2022-08-22T15:26:50.643Z,31.29
2022-08-22T15:29:22.349Z,31.29
2022-08-22T15:31:54.803Z,31.45
2022-08-22T15:34:33.649Z,31.61
2022-08-22T15:37:18.076Z,31.56
2022-08-22T15:40:00.645Z,31.54
2022-08-22T15:42:40.188Z,31.44
2022-08-22T15:45:18.624Z,31.40
2022-08-22T15:47:52.118Z,31.35
2022-08-22T15:50:54.837Z,31.34
2022-08-22T15:53:26.517Z,31.47
2022-08-22T15:56:05.047Z,31.60
2022-08-22T15:58:39.836Z,31.59
2022-08-22T16:01:20.521Z,31.54
2022-08-22T16:04:06.509Z,31.47
2022-08-22T16:06:49.227Z,31.28
2022-08-22T16:09:42.631Z,31.20
2022-08-22T16:12:32.454Z,30.89
2022-08-22T16:15:01.979Z,30.93
2022-08-22T16:17:29.076Z,30.94
2022-08-22T16:20:10.054Z,30.93
2022-08-22T16:22:59.101Z,30.98
2022-08-22T16:25:44.865Z,31.08
2022-08-22T16:28:54.319Z,31.15
2022-08-22T16:31:28.824Z,31.07
2022-08-22T16:34:18.752Z,30.94
2022-08-22T16:37:08.913Z,30.61
2022-08-22T16:39:41.254Z,30.34
2022-08-22T16:42:15.681Z,30.08
2022-08-22T16:45:05.471Z,30.18
2022-08-22T16:47:32.931Z,30.27
2022-08-22T16:50:02.792Z,30.32
2022-08-22T16:52:30.139Z,30.33
2022-08-22T16:55:24.890Z,30.39
2022-08-22T16:58:32.493Z,30.44
2022-08-22T17:01:36.519Z,30.42
2022-08-22T17:04:09.599Z,30.44
2022-08-22T17:06:52.002Z,30.45
2022-08-22T17:09:40.303Z,30.41
2022-08-22T17:12:44.910Z,30.33
2022-08-22T17:15:33.271Z,30.29
2022-08-22T17:18:11.539Z,30.28
2022-08-22T17:20:48.428Z,30.27
2022-08-22T17:23:50.371Z,30.28
2022-08-22T17:26:46.697Z,30.24
2022-08-22T17:29:26.248Z,30.25
2022-08-22T17:32:12.159Z,30.28
2022-08-22T17:34:44.586Z,30.27
2022-08-22T17:37:41.194Z,30.22
2022-08-22T17:40:11.558Z,30.21
2022-08-22T17:43:08.211Z,30.20
2022-08-22T17:45:42.936Z,30.18
2022-08-22T17:48:21.503Z,30.17
2022-08-22T17:50:55.132Z,30.15
2022-08-22T17:53:41.794Z,30.13
2022-08-22T17:56:20.357Z,30.06
2022-08-22T17:59:09.221Z,30.04
2022-08-22T18:01:48.668Z,30.02
2022-08-22T18:04:47.383Z,29.99
2022-08-22T18:07:14.804Z,29.92
2022-08-22T18:09:56.480Z,29.84
2022-08-22T18:12:34.291Z,29.82
2022-08-22T18:15:34.496Z,29.79
2022-08-22T18:18:13.159Z,29.75
2022-08-22T18:20:50.076Z,29.73
2022-08-22T18:23:39.987Z,29.69
2022-08-22T18:26:23.972Z,29.64
2022-08-22T18:28:54.436Z,29.60
2022-08-22T18:31:21.473Z,29.56
2022-08-22T18:34:01.273Z,29.55
2022-08-22T18:36:33.707Z,29.51
2022-08-22T18:39:22.490Z,29.49
2022-08-22T18:42:08.051Z,29.51
2022-08-22T18:44:37.996Z,29.48
2022-08-22T18:47:19.295Z,29.43
2022-08-22T18:49:49.157Z,29.41
2022-08-22T18:52:21.168Z,29.41
2022-08-22T18:55:06.328Z,29.39
2022-08-22T18:58:01.496Z,29.39
2022-08-22T19:00:51.876Z,29.37
2022-08-22T19:03:29.604Z,29.36
2022-08-22T19:06:18.620Z,29.33
2022-08-22T19:08:57.926Z,29.30
2022-08-22T19:11:52.205Z,29.28
2022-08-22T19:14:34.636Z,29.28
2022-08-22T19:17:16.653Z,29.27
2022-08-22T19:20:20.304Z,29.22
2022-08-22T19:22:51.139Z,29.16
2022-08-22T19:25:27.974Z,29.14
2022-08-22T19:28:10.406Z,29.14
2022-08-22T19:30:45.974Z,29.09
2022-08-22T19:33:34.623Z,28.55
2022-08-22T19:36:11.859Z,28.56
2022-08-22T19:39:00.425Z,28.61
2022-08-22T19:41:37.797Z,28.18
2022-08-22T19:44:09.197Z,28.13
2022-08-22T19:46:39.979Z,28.28
2022-08-22T19:49:27.335Z,28.25
2022-08-22T19:52:07.887Z,28.14
2022-08-22T19:54:53.335Z,27.95
2022-08-22T19:57:47.431Z,28.04
2022-08-22T20:01:04.171Z,28.12
2022-08-22T20:04:00.471Z,28.18
2022-08-22T20:06:58.363Z,28.27
2022-08-22T20:10:00.361Z,28.36
2022-08-22T20:12:46.426Z,28.41
2022-08-22T20:15:25.198Z,28.17
2022-08-22T20:20:58.370Z,28.25
2022-08-22T20:23:30.577Z,28.10
2022-08-22T20:25:58.938Z,28.11
2022-08-22T20:28:36.004Z,28.17
2022-08-22T20:31:07.651Z,28.24
2022-08-22T20:33:39.142Z,28.31
2022-08-22T20:36:16.612Z,28.36
2022-08-22T20:39:03.123Z,28.40
2022-08-22T20:41:42.793Z,28.43
2022-08-22T20:44:12.554Z,28.47
2022-08-22T20:46:46.040Z,28.52
2022-08-22T20:49:35.041Z,28.53
2022-08-22T20:52:07.128Z,28.51
2022-08-22T20:54:38.257Z,28.51
2022-08-22T20:57:25.688Z,28.29
2022-08-22T20:59:59.783Z,27.76
2022-08-22T21:02:39.323Z,27.48
2022-08-22T21:05:21.504Z,27.59
2022-08-22T21:08:03.276Z,27.73
2022-08-22T21:10:50.640Z,27.89
2022-08-22T21:13:20.439Z,27.99
2022-08-22T21:16:00.276Z,28.07
2022-08-22T21:18:40.068Z,28.15
2022-08-22T21:21:17.816Z,28.19
2022-08-22T21:23:58.593Z,28.23
2022-08-22T21:26:39.013Z,28.26
2022-08-22T21:29:14.869Z,28.26
2022-08-22T21:31:43.998Z,28.17
2022-08-22T21:34:23.920Z,28.20
2022-08-22T21:36:53.456Z,28.17
2022-08-22T21:39:43.714Z,28.07
2022-08-22T21:42:21.929Z,27.75
2022-08-22T21:45:02.548Z,27.77
2022-08-22T21:47:31.389Z,27.88
2022-08-22T21:50:02.006Z,27.97
2022-08-22T21:52:31.964Z,27.99
2022-08-22T21:55:30.549Z,27.76
2022-08-22T21:58:06.887Z,27.86
2022-08-22T22:00:54.849Z,27.91
2022-08-22T22:03:29.427Z,27.84
2022-08-22T22:05:59.878Z,27.76
2022-08-22T22:08:31.521Z,27.86
2022-08-22T22:11:08.653Z,27.79
2022-08-22T22:13:35.900Z,27.75
2022-08-22T22:16:05.494Z,27.77
2022-08-22T22:18:34.535Z,27.81
2022-08-22T22:21:02.070Z,27.82
2022-08-22T22:23:29.805Z,27.87
2022-08-22T22:26:00.789Z,27.85
2022-08-22T22:28:38.364Z,27.71
2022-08-22T22:31:06.430Z,27.65
2022-08-22T22:33:37.653Z,27.60
2022-08-22T22:36:09.456Z,27.46
2022-08-22T22:38:39.180Z,27.51
2022-08-22T22:41:06.731Z,27.59
2022-08-22T22:43:34.524Z,27.55
2022-08-22T22:46:01.667Z,27.61
2022-08-22T22:48:29.375Z,27.69
2022-08-22T22:50:56.509Z,27.71
2022-08-22T22:53:33.755Z,27.74
2022-08-22T22:56:09.868Z,27.69
2022-08-22T22:58:37.819Z,27.72
2022-08-22T23:01:15.223Z,27.57
2022-08-22T23:03:43.423Z,27.56
2022-08-22T23:06:17.331Z,27.57
2022-08-22T23:08:45.011Z,27.63
2022-08-22T23:11:18.277Z,27.63
2022-08-22T23:13:45.992Z,27.48
2022-08-22T23:16:16.117Z,27.40
2022-08-22T23:18:43.792Z,27.51
2022-08-22T23:21:15.037Z,27.47
2022-08-22T23:23:42.580Z,27.41
2022-08-22T23:26:11.120Z,27.46
2022-08-22T23:28:38.832Z,27.52
2022-08-22T23:31:18.153Z,27.04
2022-08-22T23:33:50.221Z,27.09
2022-08-22T23:36:20.653Z,27.25
2022-08-22T23:38:49.196Z,27.46
2022-08-22T23:41:21.715Z,27.50
2022-08-22T23:43:51.783Z,27.42
2022-08-22T23:46:20.656Z,27.38
2022-08-22T23:48:48.592Z,27.45
2022-08-22T23:51:22.924Z,27.54
2022-08-22T23:53:51.564Z,27.60
2022-08-22T23:56:27.455Z,27.58
2022-08-22T23:58:54.651Z,27.44
